Terminal Aerodrome Forecast
Issued by NWS Cleveland, OH

Home | Current Version | Previous Version | Graphics & Text | Print | Product List | Glossary On
Versions: 1 2 3 4 5 6 7 8 9 10 11 12 13 14 15 16 17 18 19 20 21
000
FTUS41 KCLE 260530
TAFERI
TAF
KERI 260530Z 2606/2706 06005KT P6SM SCT050 OVC150
      TEMPO 2608/2610 3SM -SHRA BR OVC030
     FM261100 32009KT 5SM BR OVC010
      TEMPO 2611/2614 BKN008
     FM261500 03014G20KT 6SM BR OVC010
     FM270300 04010KT P6SM BKN020=

USA.gov is the U.S. government's official web portal to all federal, state and local government web resources and services.